createdAt,value
2022-09-11T00:01:16.101Z,7.95
2022-09-11T00:03:43.949Z,6.70
2022-09-11T00:06:14.178Z,9.18
2022-09-11T00:08:41.773Z,6.75
2022-09-11T00:11:13.832Z,6.63
2022-09-11T00:13:40.894Z,9.13
2022-09-11T00:16:19.096Z,6.65
2022-09-11T00:18:46.934Z,8.38
2022-09-11T00:21:13.630Z,8.50
2022-09-11T00:23:40.354Z,7.00
2022-09-11T00:26:07.423Z,7.03
2022-09-11T00:28:34.643Z,5.75
2022-09-11T00:31:03.846Z,6.07
2022-09-11T00:33:30.800Z,6.68
2022-09-11T00:36:00.512Z,6.38
2022-09-11T00:38:29.113Z,8.57
2022-09-11T00:40:58.453Z,5.45
2022-09-11T00:43:27.429Z,6.57
2022-09-11T00:46:03.711Z,4.68
2022-09-11T00:48:34.436Z,3.95
2022-09-11T00:51:03.969Z,5.60
2022-09-11T00:53:34.613Z,4.15
2022-09-11T00:56:04.105Z,4.97
2022-09-11T00:58:35.918Z,6.30
2022-09-11T01:01:03.515Z,5.00
2022-09-11T01:03:32.273Z,8.15
2022-09-11T01:05:59.796Z,6.88
2022-09-11T01:08:26.442Z,5.57
2022-09-11T01:11:31.815Z,5.55
2022-09-11T01:14:09.931Z,6.28
2022-09-11T01:16:56.713Z,4.25
2022-09-11T01:19:40.590Z,5.68
2022-09-11T01:22:13.349Z,4.20
2022-09-11T01:25:05.114Z,5.57
2022-09-11T01:27:40.864Z,8.10
2022-09-11T01:30:11.903Z,4.60
2022-09-11T01:33:00.260Z,6.20
2022-09-11T01:35:48.299Z,7.80
2022-09-11T01:38:46.292Z,4.68
2022-09-11T01:41:17.349Z,5.75
2022-09-11T01:43:56.772Z,6.30
2022-09-11T01:46:25.832Z,7.03
2022-09-11T01:49:01.867Z,6.50
2022-09-11T01:51:30.923Z,6.63
2022-09-11T01:54:00.274Z,5.05
2022-09-11T01:56:34.765Z,5.75
2022-09-11T01:59:05.242Z,5.28
2022-09-11T02:01:37.062Z,7.15
2022-09-11T02:04:19.431Z,6.05
2022-09-11T02:06:49.559Z,9.00
2022-09-11T02:09:20.437Z,6.57
2022-09-11T02:11:48.800Z,5.22
2022-09-11T02:14:26.054Z,4.40
2022-09-11T02:17:15.577Z,6.35
2022-09-11T02:19:43.323Z,7.47
2022-09-11T02:22:10.068Z,6.00
2022-09-11T02:24:37.770Z,7.40
2022-09-11T02:27:07.966Z,6.60
2022-09-11T02:29:35.256Z,8.65
2022-09-11T02:32:04.036Z,5.55
2022-09-11T02:34:34.792Z,7.45
2022-09-11T02:37:12.094Z,6.30
2022-09-11T02:40:06.196Z,5.60
2022-09-11T02:42:35.571Z,5.45
2022-09-11T02:45:23.351Z,6.72
2022-09-11T02:47:50.500Z,5.47
2022-09-11T02:50:43.762Z,5.78
2022-09-11T02:53:24.548Z,7.57
2022-09-11T02:56:04.956Z,6.93
2022-09-11T02:58:38.758Z,7.55
2022-09-11T03:01:08.545Z,6.47
2022-09-11T03:03:45.777Z,6.40
2022-09-11T03:06:24.953Z,5.82
2022-09-11T03:08:51.953Z,5.85
2022-09-11T03:11:20.139Z,7.18
2022-09-11T03:13:48.873Z,7.40
2022-09-11T03:16:16.576Z,7.13
2022-09-11T03:18:44.227Z,5.25
2022-09-11T03:21:11.903Z,5.85
2022-09-11T03:23:38.871Z,5.57
2022-09-11T03:26:05.687Z,5.80
2022-09-11T03:28:32.687Z,6.88
2022-09-11T03:30:59.508Z,10.02
2022-09-11T03:33:26.707Z,6.88
2022-09-11T03:35:53.644Z,8.40
2022-09-11T03:38:20.686Z,7.60
2022-09-11T03:40:47.667Z,9.88
2022-09-11T03:43:16.762Z,11.48
2022-09-11T03:45:44.915Z,8.95
2022-09-11T03:48:13.436Z,10.90
2022-09-11T03:50:40.359Z,12.82
2022-09-11T03:53:08.701Z,13.15
2022-09-11T03:55:35.458Z,14.02
2022-09-11T03:58:02.187Z,12.73
2022-09-11T04:00:29.005Z,13.32
2022-09-11T04:02:57.318Z,14.70
2022-09-11T04:05:45.235Z,13.80
2022-09-11T04:08:13.325Z,15.82
2022-09-11T04:10:43.272Z,16.48
2022-09-11T04:13:09.934Z,13.40
2022-09-11T04:15:36.641Z,15.55
2022-09-11T04:18:07.352Z,13.27
2022-09-11T04:20:39.777Z,13.88
2022-09-11T04:23:07.138Z,15.52
2022-09-11T04:25:33.856Z,13.90
2022-09-11T04:28:02.800Z,12.65
2022-09-11T04:30:29.599Z,14.00
2022-09-11T04:32:56.312Z,12.85
2022-09-11T04:35:23.443Z,14.18
2022-09-11T04:37:55.126Z,13.40
2022-09-11T04:40:21.888Z,12.15
2022-09-11T04:42:48.661Z,15.73
2022-09-11T04:45:15.482Z,16.25
2022-09-11T04:47:42.500Z,13.07
2022-09-11T04:50:12.966Z,12.88
2022-09-11T04:52:40.973Z,13.25
2022-09-11T04:55:08.867Z,13.50
2022-09-11T04:57:35.553Z,13.00
2022-09-11T05:00:02.677Z,14.63
2022-09-11T05:02:29.437Z,15.55
2022-09-11T05:04:56.608Z,15.90
2022-09-11T05:07:25.299Z,19.30
2022-09-11T05:09:54.610Z,16.27
2022-09-11T05:12:22.158Z,14.65
2022-09-11T05:14:48.903Z,18.10
2022-09-11T05:17:15.678Z,18.08
2022-09-11T05:19:43.646Z,16.38
2022-09-11T05:22:10.576Z,17.23
2022-09-11T05:24:41.585Z,18.08
2022-09-11T05:27:12.157Z,17.25
2022-09-11T05:29:39.320Z,26.23
2022-09-11T05:32:10.980Z,19.50
2022-09-11T05:34:37.650Z,18.90
2022-09-11T05:37:05.590Z,18.77
2022-09-11T05:39:38.136Z,18.08
2022-09-11T05:42:06.428Z,18.40
2022-09-11T05:44:37.114Z,19.20
2022-09-11T05:47:04.894Z,19.48
2022-09-11T05:49:32.146Z,17.85
2022-09-11T05:52:01.276Z,20.27
2022-09-11T05:54:29.756Z,22.35
2022-09-11T05:57:07.443Z,17.88
2022-09-11T05:59:36.797Z,17.80
2022-09-11T06:02:03.775Z,22.70
2022-09-11T06:04:39.108Z,25.10
2022-09-11T06:07:06.887Z,20.48
2022-09-11T06:09:34.675Z,21.55
2022-09-11T06:12:01.926Z,22.00
2022-09-11T06:14:29.336Z,25.55
2022-09-11T06:16:57.470Z,23.67
2022-09-11T06:19:25.878Z,21.38
2022-09-11T06:21:52.699Z,25.67
2022-09-11T06:24:30.012Z,21.90
2022-09-11T06:26:57.218Z,25.52
2022-09-11T06:29:26.120Z,23.08
2022-09-11T06:31:54.348Z,24.65
2022-09-11T06:34:24.094Z,24.10
2022-09-11T06:36:52.490Z,23.23
2022-09-11T06:39:23.080Z,26.95
2022-09-11T06:41:50.795Z,25.23
2022-09-11T06:44:20.208Z,27.00
2022-09-11T06:46:47.928Z,24.63
2022-09-11T06:49:14.770Z,28.63
2022-09-11T06:52:10.539Z,24.20
2022-09-11T06:54:38.872Z,26.75
2022-09-11T06:57:10.012Z,24.83
2022-09-11T06:59:36.822Z,24.20
2022-09-11T07:02:04.033Z,27.25
2022-09-11T07:04:30.970Z,25.42
2022-09-11T07:06:59.317Z,22.27
2022-09-11T07:09:26.293Z,20.50
2022-09-11T07:11:55.828Z,21.92
2022-09-11T07:14:25.053Z,25.17
2022-09-11T07:16:58.680Z,21.38
2022-09-11T07:19:27.768Z,20.98
2022-09-11T07:21:54.729Z,20.58
2022-09-11T07:24:24.724Z,19.00
2022-09-11T07:26:51.525Z,21.10
2022-09-11T07:29:25.327Z,21.27
2022-09-11T07:31:52.307Z,19.75
2022-09-11T07:34:19.199Z,18.95
2022-09-11T07:36:46.793Z,19.48
2022-09-11T07:39:13.514Z,21.05
2022-09-11T07:42:00.509Z,21.48
2022-09-11T07:44:30.291Z,19.02
2022-09-11T07:46:57.914Z,19.45
2022-09-11T07:49:25.098Z,21.52
2022-09-11T07:51:54.411Z,17.33
2022-09-11T07:54:31.229Z,24.90
2022-09-11T07:56:58.529Z,21.67
2022-09-11T07:59:25.466Z,18.10
2022-09-11T08:01:54.348Z,19.88
2022-09-11T08:04:23.305Z,21.50
2022-09-11T08:06:50.965Z,22.45
2022-09-11T08:09:22.046Z,22.65
2022-09-11T08:11:58.622Z,17.83
2022-09-11T08:14:27.474Z,21.55
2022-09-11T08:16:58.832Z,17.15
2022-09-11T08:19:28.277Z,15.55
2022-09-11T08:21:58.826Z,17.73
2022-09-11T08:24:27.571Z,17.83
2022-09-11T08:26:59.158Z,16.83
2022-09-11T08:29:26.787Z,14.82
2022-09-11T08:31:58.146Z,15.90
2022-09-11T08:34:28.693Z,12.60
2022-09-11T08:36:55.453Z,14.98
2022-09-11T08:39:25.451Z,17.70
2022-09-11T08:42:02.631Z,15.15
2022-09-11T08:44:54.281Z,16.48
2022-09-11T08:47:36.440Z,14.82
2022-09-11T08:50:40.347Z,17.38
2022-09-11T08:53:14.716Z,14.35
2022-09-11T08:55:51.418Z,14.25
2022-09-11T08:58:29.619Z,13.77
2022-09-11T09:01:03.538Z,15.10
2022-09-11T09:04:01.297Z,14.55
2022-09-11T09:07:03.514Z,14.40
2022-09-11T09:09:48.395Z,13.68
2022-09-11T09:12:33.671Z,18.65
2022-09-11T09:15:13.984Z,14.18
2022-09-11T09:18:20.150Z,13.57
2022-09-11T09:21:01.362Z,14.32
2022-09-11T09:23:33.134Z,13.38
2022-09-11T09:26:01.192Z,12.75
2022-09-11T09:28:38.094Z,14.93
2022-09-11T09:31:07.622Z,13.13
2022-09-11T09:33:44.465Z,11.60
2022-09-11T09:36:17.621Z,12.10
2022-09-11T09:38:46.614Z,9.95
2022-09-11T09:41:26.441Z,14.15
2022-09-11T09:44:24.204Z,14.27
2022-09-11T09:46:53.438Z,12.15
2022-09-11T09:49:24.811Z,12.23
2022-09-11T09:51:51.994Z,14.35
2022-09-11T09:54:21.757Z,10.35
2022-09-11T09:56:57.170Z,10.73
2022-09-11T09:59:32.359Z,10.13
2022-09-11T10:01:59.354Z,8.55
2022-09-11T10:04:27.951Z,9.15
2022-09-11T10:07:06.358Z,14.43
2022-09-11T10:09:33.474Z,11.27
2022-09-11T10:12:08.974Z,12.85
2022-09-11T10:14:51.515Z,11.57
2022-09-11T10:17:35.445Z,10.48
2022-09-11T10:20:23.819Z,10.10
2022-09-11T10:22:51.671Z,9.35
2022-09-11T10:25:30.254Z,9.70
2022-09-11T10:28:05.981Z,9.30
2022-09-11T10:30:41.863Z,8.93
2022-09-11T10:33:41.412Z,9.20
2022-09-11T10:36:10.024Z,11.13
2022-09-11T10:38:45.139Z,12.40
2022-09-11T10:41:23.813Z,10.23
2022-09-11T10:44:01.871Z,11.35
2022-09-11T10:46:38.963Z,10.10
2022-09-11T10:49:05.953Z,8.95
2022-09-11T10:51:34.857Z,9.00
2022-09-11T10:54:07.752Z,9.25
2022-09-11T10:56:39.280Z,11.07
2022-09-11T10:59:12.536Z,8.73
2022-09-11T11:01:40.157Z,7.90
2022-09-11T11:04:12.370Z,8.65
2022-09-11T11:07:08.183Z,10.10
2022-09-11T11:09:38.053Z,11.02
2022-09-11T11:12:18.342Z,7.78
2022-09-11T11:15:25.870Z,9.10
2022-09-11T11:18:19.417Z,8.30
2022-09-11T11:21:01.795Z,5.50
2022-09-11T11:23:50.825Z,6.05
2022-09-11T11:26:36.942Z,5.95
2022-09-11T11:29:09.759Z,7.25
2022-09-11T11:31:44.430Z,7.32
2022-09-11T11:34:38.663Z,5.15
2022-09-11T11:37:14.616Z,9.32
2022-09-11T11:39:49.066Z,6.85
2022-09-11T11:42:30.400Z,6.68
2022-09-11T11:44:59.664Z,8.05
2022-09-11T11:47:31.240Z,7.13
2022-09-11T11:50:06.036Z,7.82
2022-09-11T11:52:51.985Z,7.28
2022-09-11T11:55:25.893Z,7.03
2022-09-11T11:58:04.675Z,7.15
2022-09-11T12:00:35.391Z,7.00
2022-09-11T12:03:11.474Z,5.40
2022-09-11T12:05:38.607Z,6.47
2022-09-11T12:08:12.317Z,6.50
2022-09-11T12:10:42.652Z,7.70
2022-09-11T12:13:15.660Z,5.57
2022-09-11T12:16:01.666Z,5.53
2022-09-11T12:18:29.234Z,6.30
2022-09-11T12:21:24.957Z,7.60
2022-09-11T12:23:57.784Z,6.72
2022-09-11T12:26:27.576Z,6.22
2022-09-11T12:29:11.886Z,6.22
2022-09-11T12:31:50.952Z,6.30
2022-09-11T12:34:43.324Z,6.78
2022-09-11T12:37:19.206Z,4.85
2022-09-11T12:39:51.198Z,6.80
2022-09-11T12:42:24.067Z,6.40
2022-09-11T12:44:50.898Z,6.28
2022-09-11T12:47:38.920Z,8.85
2022-09-11T12:50:05.643Z,7.45
2022-09-11T12:52:40.355Z,6.63
2022-09-11T12:55:23.377Z,6.65
2022-09-11T12:57:52.256Z,6.00
2022-09-11T13:00:36.789Z,5.13
2022-09-11T13:03:05.132Z,7.63
2022-09-11T13:05:37.923Z,5.65
2022-09-11T13:08:24.298Z,6.93
2022-09-11T13:10:51.105Z,6.60
2022-09-11T13:13:38.435Z,7.15
2022-09-11T13:16:20.313Z,5.95
2022-09-11T13:18:47.038Z,6.05
2022-09-11T13:21:19.569Z,6.00
2022-09-11T13:23:48.261Z,5.53
2022-09-11T13:26:26.345Z,6.63
2022-09-11T13:28:55.619Z,7.60
2022-09-11T13:31:32.041Z,5.35
2022-09-11T13:33:59.254Z,6.78
2022-09-11T13:36:26.249Z,8.55
2022-09-11T13:38:57.131Z,9.60
2022-09-11T13:41:32.295Z,8.18
2022-09-11T13:44:00.458Z,7.10
2022-09-11T13:46:30.592Z,6.05
2022-09-11T13:49:17.507Z,7.00
2022-09-11T13:51:46.279Z,6.07
2022-09-11T13:54:26.258Z,8.48
2022-09-11T13:56:56.015Z,6.70
2022-09-11T13:59:48.272Z,5.88
2022-09-11T14:02:47.565Z,5.22
2022-09-11T14:05:28.593Z,5.75
2022-09-11T14:08:07.901Z,6.55
2022-09-11T14:10:53.959Z,4.80
2022-09-11T14:13:23.227Z,5.97
2022-09-11T14:15:58.952Z,6.15
2022-09-11T14:18:32.262Z,9.48
2022-09-11T14:21:01.185Z,5.88
2022-09-11T14:23:29.598Z,8.00
2022-09-11T14:26:16.169Z,7.03
2022-09-11T14:28:58.156Z,7.22
2022-09-11T14:31:28.816Z,6.63
2022-09-11T14:34:29.905Z,8.55
2022-09-11T14:36:59.345Z,5.53
2022-09-11T14:39:28.828Z,7.10
2022-09-11T14:41:56.100Z,6.45
2022-09-11T14:44:24.245Z,6.57
2022-09-11T14:46:50.994Z,5.05
2022-09-11T14:49:17.945Z,6.15
2022-09-11T14:51:49.080Z,5.45
2022-09-11T14:54:16.367Z,5.60
2022-09-11T14:56:43.194Z,8.90
2022-09-11T14:59:10.340Z,5.47
2022-09-11T15:01:37.109Z,5.78
2022-09-11T15:04:03.988Z,6.43
2022-09-11T15:06:31.265Z,6.40
2022-09-11T15:08:58.530Z,5.97
2022-09-11T15:11:25.646Z,5.15
2022-09-11T15:14:14.530Z,8.05
2022-09-11T15:16:39.071Z,5.03
2022-09-11T15:19:05.773Z,6.35
2022-09-11T15:21:36.893Z,5.40
2022-09-11T15:24:05.651Z,6.18
2022-09-11T15:26:33.650Z,5.22
2022-09-11T15:29:00.705Z,4.25
2022-09-11T15:31:30.524Z,5.78
2022-09-11T15:33:57.297Z,4.25
2022-09-11T15:36:25.366Z,4.25
2022-09-11T15:38:53.492Z,5.22
2022-09-11T15:41:22.208Z,4.97
2022-09-11T15:43:50.597Z,4.07
2022-09-11T15:46:21.353Z,6.53
2022-09-11T15:48:49.675Z,5.72
2022-09-11T15:51:21.285Z,3.88
2022-09-11T15:53:48.800Z,7.57
2022-09-11T15:56:23.846Z,4.53
2022-09-11T15:58:52.873Z,3.60
2022-09-11T16:01:32.312Z,4.72
2022-09-11T16:04:01.963Z,4.00
2022-09-11T16:06:30.781Z,3.33
2022-09-11T16:08:58.924Z,3.60
2022-09-11T16:11:26.343Z,3.28
2022-09-11T16:13:53.743Z,2.30
2022-09-11T16:16:20.973Z,2.85
2022-09-11T16:18:47.809Z,8.93
2022-09-11T16:21:14.998Z,2.30
2022-09-11T16:23:42.161Z,2.20
2022-09-11T16:26:11.781Z,2.50
2022-09-11T16:28:39.908Z,2.10
2022-09-11T16:31:07.863Z,2.70
2022-09-11T16:33:40.539Z,2.55
2022-09-11T16:36:08.949Z,3.05
2022-09-11T16:38:38.098Z,4.45
2022-09-11T16:41:25.393Z,3.72
2022-09-11T16:43:53.252Z,5.18
2022-09-11T16:46:22.323Z,7.88
2022-09-11T16:48:53.953Z,5.65
2022-09-11T16:51:21.329Z,5.68
2022-09-11T16:53:48.204Z,5.05
2022-09-11T16:56:17.842Z,5.40
2022-09-11T16:58:44.737Z,5.45
2022-09-11T17:01:16.617Z,5.20
2022-09-11T17:03:45.615Z,6.07
2022-09-11T17:06:14.704Z,4.72
2022-09-11T17:08:42.718Z,7.22
2022-09-11T17:11:14.029Z,5.63
2022-09-11T17:13:42.466Z,5.03
2022-09-11T17:16:18.045Z,6.78
2022-09-11T17:18:47.518Z,5.53
2022-09-11T17:21:14.743Z,5.20
2022-09-11T17:23:42.582Z,4.25
2022-09-11T17:26:11.050Z,4.95
2022-09-11T17:28:38.538Z,3.70
2022-09-11T17:31:07.895Z,4.75
2022-09-11T17:33:35.826Z,3.95
2022-09-11T17:36:03.991Z,4.40
2022-09-11T17:38:31.315Z,4.13
2022-09-11T17:41:00.001Z,3.67
2022-09-11T17:43:26.744Z,3.75
2022-09-11T17:46:07.289Z,3.33
2022-09-11T17:48:35.172Z,3.53
2022-09-11T17:51:11.251Z,4.75
2022-09-11T17:53:44.190Z,3.97
2022-09-11T17:56:14.480Z,9.48
2022-09-11T17:58:42.899Z,4.00
2022-09-11T18:01:11.712Z,4.60
2022-09-11T18:03:41.511Z,4.90
2022-09-11T18:06:36.340Z,5.97
2022-09-11T18:09:12.035Z,3.28
2022-09-11T18:11:39.885Z,5.75
2022-09-11T18:14:07.017Z,4.70
2022-09-11T18:16:33.784Z,4.88
2022-09-11T18:19:01.614Z,7.18
2022-09-11T18:21:28.913Z,4.78
2022-09-11T18:23:56.080Z,9.38
2022-09-11T18:26:27.568Z,4.75
2022-09-11T18:29:06.321Z,7.43
2022-09-11T18:31:47.142Z,6.18
2022-09-11T18:34:16.349Z,7.15
2022-09-11T18:36:43.606Z,6.55
2022-09-11T18:39:10.981Z,5.82
2022-09-11T18:41:37.849Z,6.65
2022-09-11T18:44:11.055Z,4.47
2022-09-11T18:46:37.840Z,4.35
2022-09-11T18:49:05.173Z,5.18
2022-09-11T18:51:32.536Z,5.28
2022-09-11T18:54:00.232Z,4.75
2022-09-11T18:56:28.565Z,6.55
2022-09-11T18:58:56.272Z,5.25
2022-09-11T19:01:25.739Z,5.60
2022-09-11T19:03:53.428Z,5.68
2022-09-11T19:06:22.963Z,5.63
2022-09-11T19:08:50.278Z,4.50
2022-09-11T19:11:22.201Z,5.53
2022-09-11T19:13:49.583Z,3.63
2022-09-11T19:16:17.837Z,3.75
2022-09-11T19:18:44.570Z,4.72
2022-09-11T19:21:16.287Z,4.45
2022-09-11T19:23:44.896Z,4.30
2022-09-11T19:26:38.367Z,6.47
2022-09-11T19:29:06.522Z,4.13
2022-09-11T19:31:33.961Z,4.05
2022-09-11T19:34:01.750Z,4.97
2022-09-11T19:36:30.567Z,5.78
2022-09-11T19:39:00.647Z,4.22
2022-09-11T19:41:30.322Z,5.80
2022-09-11T19:44:04.374Z,7.47
2022-09-11T19:46:33.259Z,7.97
2022-09-11T19:49:03.248Z,9.55
2022-09-11T19:51:32.685Z,6.57
2022-09-11T19:54:00.719Z,5.55
2022-09-11T19:56:28.463Z,8.13
2022-09-11T19:58:55.465Z,4.30
2022-09-11T20:01:24.206Z,4.05
2022-09-11T20:03:55.434Z,5.25
2022-09-11T20:06:25.017Z,4.18
2022-09-11T20:09:07.953Z,6.25
2022-09-11T20:11:42.524Z,5.13
2022-09-11T20:14:09.807Z,4.82
2022-09-11T20:16:36.808Z,4.45
2022-09-11T20:19:06.515Z,3.75
2022-09-11T20:21:35.392Z,4.38
2022-09-11T20:24:02.826Z,4.15
2022-09-11T20:26:30.652Z,6.88
2022-09-11T20:29:02.678Z,3.70
2022-09-11T20:31:39.042Z,4.93
2022-09-11T20:34:09.175Z,4.90
2022-09-11T20:36:35.952Z,5.38
2022-09-11T20:39:03.124Z,3.60
2022-09-11T20:41:30.936Z,3.60
2022-09-11T20:44:00.386Z,5.22
2022-09-11T20:46:27.414Z,6.18
2022-09-11T20:48:54.402Z,5.43
2022-09-11T20:51:21.967Z,4.35
2022-09-11T20:53:49.156Z,5.50
2022-09-11T20:56:24.016Z,4.45
2022-09-11T20:58:51.398Z,4.15
2022-09-11T21:01:21.513Z,4.10
2022-09-11T21:03:53.624Z,5.53
2022-09-11T21:06:25.619Z,3.92
2022-09-11T21:08:58.246Z,5.55
2022-09-11T21:11:27.202Z,6.38
2022-09-11T21:13:54.079Z,6.15
2022-09-11T21:16:21.238Z,4.22
2022-09-11T21:18:52.985Z,4.30
2022-09-11T21:21:20.777Z,5.82
2022-09-11T21:23:47.989Z,3.55
2022-09-11T21:26:16.775Z,4.20
2022-09-11T21:28:43.626Z,3.65
2022-09-11T21:31:11.020Z,5.85
2022-09-11T21:33:38.026Z,5.47
2022-09-11T21:36:05.634Z,4.00
2022-09-11T21:38:32.347Z,4.93
2022-09-11T21:41:00.504Z,4.85
2022-09-11T21:43:28.138Z,3.22
2022-09-11T21:45:54.863Z,4.53
2022-09-11T21:48:21.574Z,4.03
2022-09-11T21:50:48.451Z,3.40
2022-09-11T21:53:15.710Z,4.40
2022-09-11T21:55:44.161Z,4.57
2022-09-11T21:58:21.017Z,3.90
2022-09-11T22:00:48.931Z,5.63
2022-09-11T22:03:18.642Z,4.38
2022-09-11T22:05:47.895Z,4.70
2022-09-11T22:08:18.109Z,6.55
2022-09-11T22:10:47.617Z,4.45
2022-09-11T22:13:15.116Z,5.93
2022-09-11T22:15:42.339Z,4.53
2022-09-11T22:18:09.200Z,4.40
2022-09-11T22:20:39.572Z,4.00
2022-09-11T22:23:06.972Z,4.60
2022-09-11T22:25:36.808Z,5.28
2022-09-11T22:28:04.621Z,4.75
2022-09-11T22:30:31.687Z,4.75
2022-09-11T22:32:58.648Z,6.70
2022-09-11T22:35:25.534Z,4.22
2022-09-11T22:37:52.361Z,3.42
2022-09-11T22:40:19.487Z,4.38
2022-09-11T22:42:46.162Z,3.95
2022-09-11T22:45:12.824Z,4.63
2022-09-11T22:47:39.493Z,4.10
2022-09-11T22:50:06.571Z,5.45
2022-09-11T22:52:33.300Z,4.65
2022-09-11T22:54:59.987Z,3.83
2022-09-11T22:57:29.102Z,4.55
2022-09-11T22:59:56.286Z,5.60
2022-09-11T23:02:23.091Z,3.70
2022-09-11T23:05:08.563Z,4.90
2022-09-11T23:07:35.272Z,4.28
2022-09-11T23:10:02.095Z,2.78
2022-09-11T23:12:28.873Z,4.20
2022-09-11T23:14:56.158Z,3.33
2022-09-11T23:17:22.880Z,5.43
2022-09-11T23:19:49.515Z,3.40
2022-09-11T23:22:16.236Z,3.72
2022-09-11T23:24:42.918Z,2.30
2022-09-11T23:27:09.633Z,2.78
2022-09-11T23:29:36.357Z,3.45
2022-09-11T23:32:03.230Z,2.60
2022-09-11T23:34:30.618Z,2.88
2022-09-11T23:36:57.301Z,1.88
2022-09-11T23:39:24.116Z,3.08
2022-09-11T23:41:50.818Z,2.67
2022-09-11T23:44:17.893Z,2.60
2022-09-11T23:46:44.824Z,2.58
2022-09-11T23:49:12.347Z,3.45
2022-09-11T23:51:42.757Z,2.45
2022-09-11T23:54:09.446Z,2.40
2022-09-11T23:56:36.149Z,2.45
2022-09-11T23:59:02.870Z,2.83
